Daily Tabular Data
[Select Refresh to Update]


12/11/17
Time         Wind Dir   Wind Spd  Wind Gust     Hum In   Humidity    Temp In       Temp  Raw Barom   Tot Rain Wind Chill Heat Ix In Heat Index  Dew Point  DailyRain   HourRain   RainRate
                            mph        mph          %          %         F         F         in         in         F         F         F         F         in         in      in/hr
12:00am           108          0          2         25         19       73.5       63.6      29.30       0.10       63.6       72.4       62.1       20.6       0.00       0.00      0.000
12:30am            95          0          1         24         21       73.5       63.6      29.30       0.10       63.6       72.3       62.2       23.0       0.00       0.00      0.000
1:00am            109          0          4         24         23       73.4       62.5      29.30       0.10       62.5       72.2       61.3       24.2       0.00       0.00      0.000
1:30am             80          0          3         24         21       73.2       62.0      29.31       0.10       62.0       72.0       60.6       21.6       0.00       0.00      0.000
2:00am            105          0          3         24         23       73.0       61.9      29.31       0.10       61.9       71.8       60.7       23.7       0.00       0.00      0.000
2:30am             92          0          3         24         20       72.9       60.4      29.31       0.10       60.4       71.7       59.0       19.2       0.00       0.00      0.000
3:00am             46          0          2         24         18       72.8       62.3      29.31       0.10       62.3       71.6       60.8       18.3       0.00       0.00      0.000
3:30am             53          0          3         24         17       72.7       62.8      29.30       0.10       62.8       71.5       61.2       17.4       0.00       0.00      0.000
4:00am             93          3          3         24         17       72.6       64.2      29.28       0.10       64.2       71.4       62.6       18.5       0.00       0.00      0.000
4:30am            114          0          5         24         18       72.5       63.3      29.28       0.10       63.3       71.3       61.8       19.1       0.00       0.00      0.000
5:00am             94          0          3         24         19       72.4       62.7      29.28       0.10       62.7       71.2       61.2       19.9       0.00       0.00      0.000
5:30am            116          0          1         24         22       72.4       63.6      29.29       0.10       63.6       71.2       62.3       24.1       0.00       0.00      0.000
6:00am             86          0          2         24         18       72.3       62.3      29.29       0.10       62.3       71.1       60.8       18.3       0.00       0.00      0.000
6:30am            183          0          3         24         26       72.2       63.5      29.30       0.10       63.5       71.0       62.4       28.0       0.00       0.00      0.000
7:00am             89          0          3         24         19       72.1       62.6      29.32       0.10       62.6       70.9       61.1       19.8       0.00       0.00      0.000
7:30am             84          0          3         24         18       72.1       64.0      29.32       0.10       64.0       70.9       62.5       19.7       0.00       0.00      0.000
8:00am             92          0          3         24         20       72.1       67.2      29.33       0.10       67.2       70.9       65.8       24.8       0.00       0.00      0.000
8:30am             86          0          1         24         19       72.2       72.2      29.34       0.10       72.2       71.0       70.7       27.7       0.00       0.00      0.000
9:00am             86          0          1         24         19       72.3       75.4      29.35       0.10       75.4       71.1       73.9       30.3       0.00       0.00      0.000
9:30am            192          0          1         24         19       72.7       79.2      29.36       0.10       79.2       71.5       77.7       33.4       0.00       0.00      0.000
10:00am           248          0          0         23         12       72.9       78.1      29.36       0.10       78.1       71.7       76.3       21.4       0.00       0.00      0.000
10:30am           229          0          1         23         10       72.9       77.4      29.36       0.10       77.4       71.7       75.5       16.6       0.00       0.00      0.000
11:00am           250          0          7         23         13       72.9       77.5      29.35       0.10       77.5       71.7       75.7       22.8       0.00       0.00      0.000
11:30am           238          0          7         23         15       72.9       78.4      29.34       0.10       78.4       71.7       76.7       27.0       0.00       0.00      0.000
12:00pm           225          0          3         23         15       73.0       80.0      29.33       0.10       80.0       71.8       78.3       28.2       0.00       0.00      0.000
12:30pm           308          4          7         24         11       73.0       79.7      29.31       0.10       79.7       71.8       77.9       20.6       0.00       0.00      0.000
1:00pm            258          0          7         24         13       73.2       80.3      29.31       0.10       80.3       72.0       78.4       25.0       0.00       0.00      0.000
1:30pm            244          0          9         25         12       73.3       80.1      29.30       0.10       80.1       72.2       78.3       23.0       0.00       0.00      0.000
2:00pm            274          6         10         25         11       73.5       78.9      29.30       0.10       78.9       72.4       77.1       20.0       0.00       0.00      0.000
2:30pm            271          2         10         25         13       73.6       78.6      29.30       0.10       78.6       72.5       76.8       23.7       0.00       0.00      0.000
3:00pm            286          6         11         26         13       73.7       76.5      29.30       0.10       76.5       72.6       74.7       22.0       0.00       0.00      0.000
3:30pm            286          2          9         26         13       73.8       75.8      29.31       0.10       75.8       72.7       74.0       21.5       0.00       0.00      0.000
4:00pm            274          0          7         26         16       73.9       74.2      29.31       0.10       74.2       72.8       72.6       25.2       0.00       0.00      0.000
4:30pm            244          0          4         26         28       73.9       73.5      29.31       0.10       73.5       72.8       72.6       38.4       0.00       0.00      0.000
5:00pm            355          0          1         26         21       74.0       69.3      29.31       0.10       69.3       72.9       67.9       27.7       0.00       0.00      0.000
5:30pm            329          0          1         26         26       74.0       68.8      29.32       0.10       68.8       72.9       67.7       32.5       0.00       0.00      0.000
6:00pm             89          0          6         26         20       74.0       67.8      29.32       0.10       67.8       72.9       66.4       25.3       0.00       0.00      0.000
6:30pm            107          0          3         26         21       74.0       65.5      29.32       0.10       65.5       72.9       64.1       24.6       0.00       0.00      0.000
7:00pm             78          1          4         26         21       73.9       64.9      29.32       0.10       64.9       72.8       63.5       24.1       0.00       0.00      0.000
7:30pm             40          0          3         26         22       73.9       63.4      29.32       0.10       63.4       72.8       62.1       23.9       0.00       0.00      0.000
8:00pm             89          0          6         25         19       73.9       63.7      29.33       0.10       63.7       72.8       62.2       20.7       0.00       0.00      0.000
8:30pm             93          0          3         25         19       73.8       63.4      29.33       0.10       63.4       72.7       61.9       20.4       0.00       0.00      0.000
9:00pm             93          1          3         25         22       73.8       60.5      29.33       0.10       60.5       72.7       59.2       21.5       0.00       0.00      0.000
9:30pm            337          0          2         24         22       73.7       60.5      29.33       0.10       60.5       72.5       59.2       21.5       0.00       0.00      0.000
10:00pm           101          3          4         23         24       73.5       57.7      29.34       0.10       57.7       72.3       56.5       21.2       0.00       0.00      0.000
10:30pm            91          0          4         23         22       73.4       59.3      29.34       0.10       59.3       72.2       58.0       20.5       0.00       0.00      0.000
11:00pm            86          0          4         23         16       73.3       61.8      29.34       0.10       61.8       72.1       60.2       15.2       0.00       0.00      0.000
11:30pm           113          0          3         23         15       73.2       62.5      29.33       0.10       62.5       72.0       60.8       14.2       0.00       0.00      0.000